createdAt,value
2023-03-12T00:00:14.460Z,13.80
2023-03-12T00:02:41.204Z,9.90
2023-03-12T00:05:08.520Z,9.10
2023-03-12T00:07:36.895Z,8.90
2023-03-12T00:10:05.667Z,8.00
2023-03-12T00:12:32.691Z,9.80
2023-03-12T00:14:59.591Z,8.90
2023-03-12T00:17:26.431Z,9.30
2023-03-12T00:19:54.015Z,8.70
2023-03-12T00:22:23.110Z,8.20
2023-03-12T00:24:52.455Z,5.20
2023-03-12T00:27:20.319Z,6.50
2023-03-12T00:29:47.112Z,5.90
2023-03-12T00:32:14.431Z,5.20
2023-03-12T00:34:41.296Z,5.70
2023-03-12T00:37:08.752Z,6.20
2023-03-12T00:39:35.829Z,6.90
2023-03-12T00:42:02.816Z,7.00
2023-03-12T00:44:29.581Z,7.00
2023-03-12T00:46:56.339Z,7.60
2023-03-12T00:49:23.159Z,8.80
2023-03-12T00:51:50.039Z,8.70
2023-03-12T00:54:16.874Z,8.00
2023-03-12T00:56:43.829Z,6.50
2023-03-12T00:59:10.620Z,6.80
2023-03-12T01:01:37.402Z,8.10
2023-03-12T01:04:04.568Z,8.20
2023-03-12T01:06:31.624Z,8.70
2023-03-12T01:08:58.695Z,7.30
2023-03-12T01:11:25.517Z,7.40
2023-03-12T01:13:52.345Z,7.60
2023-03-12T01:16:19.152Z,7.50
2023-03-12T01:18:46.200Z,7.90
2023-03-12T01:21:13.065Z,7.90
2023-03-12T01:23:39.845Z,7.80
2023-03-12T01:26:06.585Z,8.00
2023-03-12T01:28:33.300Z,8.60
2023-03-12T01:31:12.539Z,7.40
2023-03-12T01:33:40.273Z,7.00
2023-03-12T01:36:18.531Z,7.70
2023-03-12T01:38:45.713Z,8.20
2023-03-12T01:41:13.141Z,8.80
2023-03-12T01:43:40.549Z,8.90
2023-03-12T01:46:38.741Z,9.00
2023-03-12T01:49:27.450Z,10.20
2023-03-12T01:52:12.968Z,9.70
2023-03-12T01:54:52.293Z,10.50
2023-03-12T01:57:27.041Z,10.30
2023-03-12T01:59:59.964Z,9.50
2023-03-12T02:02:28.845Z,9.70
2023-03-12T02:05:08.920Z,10.60
2023-03-12T02:07:36.137Z,6.10
2023-03-12T02:10:04.778Z,9.80
2023-03-12T02:12:32.574Z,9.00
2023-03-12T02:14:59.446Z,9.90
2023-03-12T02:17:26.378Z,9.20
2023-03-12T02:19:55.466Z,9.50
2023-03-12T02:22:23.119Z,9.70
2023-03-12T02:24:57.553Z,9.40
2023-03-12T02:27:24.956Z,9.70
2023-03-12T02:29:52.151Z,9.10
2023-03-12T02:32:26.841Z,8.90
2023-03-12T02:34:53.958Z,9.00
2023-03-12T02:37:20.747Z,9.30
2023-03-12T02:39:57.659Z,6.60
2023-03-12T02:42:25.076Z,7.90
2023-03-12T02:44:52.591Z,7.70
2023-03-12T02:47:19.450Z,7.30
2023-03-12T02:49:46.639Z,7.10
2023-03-12T02:52:13.450Z,7.10
2023-03-12T02:54:40.371Z,7.00
2023-03-12T02:57:07.131Z,7.80
2023-03-12T02:59:34.525Z,7.30
2023-03-12T03:02:02.235Z,8.10
2023-03-12T03:04:31.084Z,8.90
2023-03-12T03:06:58.035Z,8.20
2023-03-12T03:09:25.340Z,8.20
2023-03-12T03:11:52.897Z,10.00
2023-03-12T03:14:20.060Z,11.30
2023-03-12T03:16:48.349Z,9.80
2023-03-12T03:19:15.169Z,10.60
2023-03-12T03:21:41.972Z,11.30
2023-03-12T03:24:08.781Z,10.20
2023-03-12T03:26:35.822Z,12.40
2023-03-12T03:29:03.092Z,11.40
2023-03-12T03:31:30.083Z,11.30
2023-03-12T03:33:57.293Z,9.50
2023-03-12T03:36:24.099Z,11.70
2023-03-12T03:38:59.654Z,12.70
2023-03-12T03:41:27.076Z,12.10
2023-03-12T03:43:58.556Z,11.90
2023-03-12T03:46:26.803Z,11.60
2023-03-12T03:48:58.898Z,12.30
2023-03-12T03:51:26.955Z,9.80
2023-03-12T03:53:56.348Z,12.20
2023-03-12T03:56:23.276Z,11.80
2023-03-12T03:58:50.232Z,12.50
2023-03-12T04:01:18.426Z,11.20
2023-03-12T04:03:45.755Z,11.40
2023-03-12T04:06:13.104Z,10.50
2023-03-12T04:08:40.971Z,12.10
2023-03-12T04:11:14.944Z,12.00
2023-03-12T04:13:41.968Z,9.80
2023-03-12T04:16:10.310Z,12.20
2023-03-12T04:18:37.711Z,12.80
2023-03-12T04:21:07.308Z,12.00
2023-03-12T04:23:34.673Z,12.70
2023-03-12T04:26:01.691Z,11.40
2023-03-12T04:28:28.975Z,9.40
2023-03-12T04:31:01.728Z,12.00
2023-03-12T04:33:39.799Z,11.60
2023-03-12T04:36:08.027Z,10.10
2023-03-12T04:38:36.068Z,9.20
2023-03-12T04:41:08.086Z,11.10
2023-03-12T04:43:37.137Z,11.20
2023-03-12T04:46:05.275Z,12.10
2023-03-12T04:48:34.208Z,11.60
2023-03-12T04:51:03.267Z,9.60
2023-03-12T04:53:30.264Z,9.60
2023-03-12T04:55:57.807Z,9.50
2023-03-12T04:58:24.634Z,11.10
2023-03-12T05:00:51.874Z,10.70
2023-03-12T05:03:19.186Z,10.00
2023-03-12T05:05:46.147Z,9.50
2023-03-12T05:08:13.444Z,10.90
2023-03-12T05:10:45.235Z,9.50
2023-03-12T05:13:22.750Z,10.20
2023-03-12T05:15:52.240Z,7.20
2023-03-12T05:18:21.531Z,9.70
2023-03-12T05:20:59.585Z,8.40
2023-03-12T05:23:26.572Z,7.80
2023-03-12T05:25:53.921Z,7.10
2023-03-12T05:28:21.711Z,8.80
2023-03-12T05:30:48.749Z,10.20
2023-03-12T05:33:15.706Z,9.80
2023-03-12T05:35:42.566Z,9.70
2023-03-12T05:38:09.374Z,8.60
2023-03-12T05:40:36.213Z,5.70
2023-03-12T05:43:03.466Z,8.40
2023-03-12T05:45:30.581Z,8.00
2023-03-12T05:47:58.916Z,7.50
2023-03-12T05:50:27.720Z,7.00
2023-03-12T05:52:54.912Z,9.00
2023-03-12T05:55:21.766Z,8.60
2023-03-12T05:57:48.772Z,7.80
2023-03-12T06:00:16.465Z,7.80
2023-03-12T06:02:48.521Z,8.00
2023-03-12T06:05:15.544Z,8.60
2023-03-12T06:07:42.499Z,8.60
2023-03-12T06:10:10.141Z,9.20
2023-03-12T06:12:37.336Z,8.10
2023-03-12T06:15:05.452Z,7.50
2023-03-12T06:17:32.487Z,8.80
2023-03-12T06:19:59.721Z,8.40
2023-03-12T06:22:27.712Z,7.90
2023-03-12T06:24:55.206Z,6.60
2023-03-12T06:27:23.902Z,8.10
2023-03-12T06:29:51.590Z,7.20
2023-03-12T06:32:18.623Z,6.70
2023-03-12T06:34:45.628Z,7.10
2023-03-12T06:37:12.403Z,7.70
2023-03-12T06:39:39.286Z,6.80
2023-03-12T06:42:06.193Z,8.00
2023-03-12T06:44:33.321Z,7.00
2023-03-12T06:47:00.143Z,6.40
2023-03-12T06:49:27.509Z,7.40
2023-03-12T06:51:56.052Z,6.30
2023-03-12T06:54:22.841Z,6.40
2023-03-12T06:56:49.620Z,6.70
2023-03-12T06:59:16.384Z,6.50
2023-03-12T07:01:43.396Z,5.30
2023-03-12T07:04:10.196Z,6.20
2023-03-12T07:06:36.955Z,5.70
2023-03-12T07:09:05.107Z,6.30
2023-03-12T07:11:32.011Z,4.80
2023-03-12T07:13:58.886Z,4.40
2023-03-12T07:16:25.687Z,4.90
2023-03-12T07:18:52.499Z,6.00
2023-03-12T07:21:24.014Z,4.90
2023-03-12T07:23:51.583Z,5.80
2023-03-12T07:26:19.045Z,5.40
2023-03-12T07:28:46.151Z,4.50
2023-03-12T07:31:13.064Z,5.30
2023-03-12T07:33:40.013Z,5.90
2023-03-12T07:36:07.601Z,6.20
2023-03-12T07:38:34.402Z,5.60
2023-03-12T07:41:01.353Z,6.10
2023-03-12T07:43:28.254Z,4.10
2023-03-12T07:45:55.501Z,5.80
2023-03-12T07:48:22.411Z,6.10
2023-03-12T07:50:49.231Z,6.70
2023-03-12T07:53:17.037Z,6.50
2023-03-12T07:55:46.479Z,5.50
2023-03-12T07:58:15.671Z,6.20
2023-03-12T08:00:42.675Z,6.20
2023-03-12T08:03:09.657Z,6.50
2023-03-12T08:05:36.861Z,5.50
2023-03-12T08:08:04.113Z,6.30
2023-03-12T08:10:31.187Z,6.80
2023-03-12T08:12:58.105Z,6.10
2023-03-12T08:15:25.418Z,5.30
2023-03-12T08:17:52.287Z,6.40
2023-03-12T08:20:19.114Z,5.70
2023-03-12T08:22:45.835Z,6.00
2023-03-12T08:25:13.302Z,5.20
2023-03-12T08:27:40.096Z,5.50
2023-03-12T08:30:08.096Z,5.20
2023-03-12T08:32:36.230Z,5.10
2023-03-12T08:35:05.384Z,5.70
2023-03-12T08:37:33.010Z,5.70
2023-03-12T08:40:00.279Z,5.20
2023-03-12T08:42:27.173Z,5.50
2023-03-12T08:44:54.006Z,4.60
2023-03-12T08:47:20.785Z,5.40
2023-03-12T08:49:47.731Z,5.00
2023-03-12T08:52:14.515Z,5.20
2023-03-12T08:54:41.364Z,5.30
2023-03-12T08:57:08.315Z,5.30
2023-03-12T08:59:35.201Z,5.70
2023-03-12T09:02:01.950Z,5.20
2023-03-12T09:04:28.909Z,5.30
2023-03-12T09:06:55.790Z,5.00
2023-03-12T09:09:22.654Z,5.30
2023-03-12T09:11:49.448Z,5.00
2023-03-12T09:15:16.475Z,4.60
2023-03-12T09:17:03.393Z,5.30
2023-03-12T09:19:30.164Z,5.70
2023-03-12T09:21:57.757Z,4.90
2023-03-12T09:24:24.717Z,5.20
2023-03-12T09:26:51.484Z,5.50
2023-03-12T09:29:18.285Z,5.40
2023-03-12T09:31:45.018Z,4.80
2023-03-12T09:34:11.840Z,5.10
2023-03-12T09:36:38.751Z,5.30
2023-03-12T09:39:05.998Z,4.50
2023-03-12T09:41:37.847Z,5.00
2023-03-12T09:44:10.285Z,5.50
2023-03-12T09:46:45.266Z,4.90
2023-03-12T09:49:19.524Z,5.00
2023-03-12T09:51:51.740Z,4.70
2023-03-12T09:54:39.593Z,4.60
2023-03-12T09:57:13.093Z,4.30
2023-03-12T09:59:39.917Z,4.40
2023-03-12T10:02:29.227Z,4.70
2023-03-12T10:05:02.015Z,4.80
2023-03-12T10:07:45.532Z,5.00
2023-03-12T10:10:27.806Z,3.70
2023-03-12T10:12:54.553Z,4.10
2023-03-12T10:15:36.982Z,4.10
2023-03-12T10:18:08.214Z,5.20
2023-03-12T10:20:53.893Z,4.40
2023-03-12T10:23:33.029Z,4.90
2023-03-12T10:26:14.813Z,5.10
2023-03-12T10:28:44.201Z,3.40
2023-03-12T10:31:21.750Z,4.00
2023-03-12T10:33:54.464Z,2.60
2023-03-12T10:36:26.309Z,2.80
2023-03-12T10:38:53.049Z,2.60
2023-03-12T10:41:24.098Z,3.20
2023-03-12T10:43:51.343Z,3.50
2023-03-12T10:46:34.703Z,2.80
2023-03-12T10:49:25.948Z,3.10
2023-03-12T10:51:55.502Z,3.10
2023-03-12T10:54:30.742Z,3.10
2023-03-12T10:56:57.708Z,3.50
2023-03-12T10:59:29.562Z,3.60
2023-03-12T11:01:57.124Z,3.90
2023-03-12T11:04:30.283Z,3.60
2023-03-12T11:07:12.478Z,4.10
2023-03-12T11:09:39.354Z,3.40
2023-03-12T11:12:24.486Z,3.30
2023-03-12T11:14:51.449Z,3.00
2023-03-12T11:17:22.746Z,2.60
2023-03-12T11:19:49.517Z,3.50
2023-03-12T11:22:29.926Z,2.90
2023-03-12T11:24:59.716Z,3.20
2023-03-12T11:27:38.081Z,3.00
2023-03-12T11:30:07.460Z,2.90
2023-03-12T11:32:45.914Z,3.70
2023-03-12T11:35:16.069Z,3.90
2023-03-12T11:37:59.183Z,2.50
2023-03-12T11:40:46.121Z,2.10
2023-03-12T11:43:43.896Z,2.50
2023-03-12T11:46:22.941Z,3.50
2023-03-12T11:49:02.292Z,2.40
2023-03-12T11:51:33.548Z,1.80
2023-03-12T11:54:15.820Z,2.30
2023-03-12T11:56:51.683Z,2.60
2023-03-12T11:59:41.514Z,2.30
2023-03-12T12:02:38.968Z,2.50
2023-03-12T12:05:29.439Z,4.30
2023-03-12T12:08:16.111Z,2.30
2023-03-12T12:10:46.359Z,2.20
2023-03-12T12:13:18.079Z,2.10
2023-03-12T12:15:53.022Z,2.40
2023-03-12T12:18:38.193Z,2.00
2023-03-12T12:21:27.680Z,2.40
2023-03-12T12:24:10.300Z,2.30
2023-03-12T12:26:56.078Z,2.20
2023-03-12T12:29:45.757Z,2.30
2023-03-12T12:32:19.449Z,2.20
2023-03-12T12:35:01.677Z,2.80
2023-03-12T12:37:46.149Z,2.10
2023-03-12T12:40:31.430Z,2.60
2023-03-12T12:43:07.568Z,2.10
2023-03-12T12:45:40.524Z,2.20
2023-03-12T12:48:17.911Z,3.20
2023-03-12T12:50:48.090Z,3.10
2023-03-12T12:53:23.180Z,3.10
2023-03-12T12:56:00.887Z,2.10
2023-03-12T12:58:31.034Z,2.10
2023-03-12T13:01:00.798Z,2.50
2023-03-12T13:03:29.449Z,2.00
2023-03-12T13:05:59.021Z,1.90
2023-03-12T13:08:43.183Z,4.90
2023-03-12T13:11:18.697Z,4.80
2023-03-12T13:13:51.653Z,7.30
2023-03-12T13:16:35.014Z,2.80
2023-03-12T13:19:16.442Z,2.30
2023-03-12T13:21:54.388Z,2.20
2023-03-12T13:24:29.918Z,2.20
2023-03-12T13:27:15.211Z,2.50
2023-03-12T13:29:42.843Z,2.10
2023-03-12T13:32:37.249Z,2.70
2023-03-12T13:35:11.875Z,3.50
2023-03-12T13:37:54.071Z,2.50
2023-03-12T13:40:34.229Z,2.70
2023-03-12T13:43:11.699Z,1.90
2023-03-12T13:45:57.566Z,2.40
2023-03-12T13:48:25.037Z,2.30
2023-03-12T13:50:58.026Z,2.20
2023-03-12T13:53:35.767Z,2.40
2023-03-12T13:56:22.201Z,2.50
2023-03-12T13:59:05.644Z,2.40
2023-03-12T14:01:40.706Z,2.90
2023-03-12T14:04:20.665Z,2.80
2023-03-12T14:07:09.991Z,2.50
2023-03-12T14:09:50.020Z,3.00
2023-03-12T14:12:25.601Z,3.90
2023-03-12T14:15:08.979Z,3.70
2023-03-12T14:17:38.248Z,3.00
2023-03-12T14:20:13.927Z,2.60
2023-03-12T14:22:45.005Z,2.50
2023-03-12T14:25:26.270Z,3.30
2023-03-12T14:27:53.634Z,3.30
2023-03-12T14:30:20.593Z,2.90
2023-03-12T14:32:49.930Z,3.00
2023-03-12T14:35:22.216Z,3.50
2023-03-12T14:38:07.295Z,3.40
2023-03-12T14:40:38.814Z,3.20
2023-03-12T14:43:23.455Z,3.60
2023-03-12T14:45:52.373Z,4.00
2023-03-12T14:48:23.928Z,4.00
2023-03-12T14:50:50.898Z,3.90
2023-03-12T14:53:29.909Z,3.20
2023-03-12T14:56:13.758Z,4.30
2023-03-12T14:58:47.344Z,3.50
2023-03-12T15:01:19.355Z,3.70
2023-03-12T15:03:51.295Z,3.50
2023-03-12T15:06:25.653Z,3.30
2023-03-12T15:08:52.741Z,4.00
2023-03-12T15:11:24.358Z,3.10
2023-03-12T15:13:53.540Z,7.10
2023-03-12T15:16:22.043Z,3.70
2023-03-12T15:18:50.437Z,3.60
2023-03-12T15:21:18.105Z,3.60
2023-03-12T15:23:47.738Z,4.40
2023-03-12T15:26:22.002Z,3.90
2023-03-12T15:28:59.236Z,6.30
2023-03-12T15:31:26.563Z,4.10
2023-03-12T15:34:03.980Z,6.90
2023-03-12T15:36:33.573Z,3.60
2023-03-12T15:39:05.800Z,4.70
2023-03-12T15:41:43.538Z,4.30
2023-03-12T15:44:19.960Z,3.30
2023-03-12T15:46:49.400Z,7.00
2023-03-12T15:49:25.375Z,6.80
2023-03-12T15:51:59.887Z,9.70
2023-03-12T15:54:29.445Z,4.90
2023-03-12T15:57:18.182Z,7.70
2023-03-12T15:59:45.002Z,8.80
2023-03-12T16:02:13.140Z,5.00
2023-03-12T16:04:40.132Z,3.90
2023-03-12T16:07:12.194Z,4.10
2023-03-12T16:09:39.039Z,4.50
2023-03-12T16:12:06.177Z,4.30
2023-03-12T16:14:37.101Z,3.40
2023-03-12T16:17:03.902Z,4.30
2023-03-12T16:19:33.979Z,4.10
2023-03-12T16:22:00.946Z,3.90
2023-03-12T16:24:27.724Z,66.00
2023-03-12T16:26:58.301Z,90.50
2023-03-12T16:29:38.557Z,192.50
2023-03-12T16:32:15.899Z,162.20
2023-03-12T16:34:44.964Z,52.70
2023-03-12T16:37:13.020Z,70.70
2023-03-12T16:39:40.229Z,20.70
2023-03-12T16:42:15.798Z,62.90
2023-03-12T16:44:46.048Z,9.10
2023-03-12T16:47:14.501Z,5.80
2023-03-12T16:49:41.583Z,5.70
2023-03-12T16:52:19.051Z,6.40
2023-03-12T16:54:45.971Z,6.40
2023-03-12T16:57:19.505Z,7.00
2023-03-12T16:59:46.360Z,7.80
2023-03-12T17:02:16.770Z,20.20
2023-03-12T17:04:43.697Z,21.20
2023-03-12T17:07:10.682Z,37.40
2023-03-12T17:09:37.708Z,14.20
2023-03-12T17:12:04.621Z,28.20
2023-03-12T17:14:31.813Z,29.60
2023-03-12T17:16:58.601Z,38.70
2023-03-12T17:19:25.404Z,26.20
2023-03-12T17:21:52.660Z,24.00
2023-03-12T17:24:19.563Z,44.50
2023-03-12T17:26:46.591Z,22.60
2023-03-12T17:29:15.702Z,22.60
2023-03-12T17:31:42.536Z,27.30
2023-03-12T17:34:09.746Z,20.70
2023-03-12T17:36:38.018Z,12.50
2023-03-12T17:39:05.129Z,16.60
2023-03-12T17:41:33.292Z,7.80
2023-03-12T17:44:02.200Z,37.30
2023-03-12T17:46:30.787Z,13.30
2023-03-12T17:48:57.652Z,10.00
2023-03-12T17:51:24.813Z,15.80
2023-03-12T17:53:51.581Z,7.80
2023-03-12T17:56:18.528Z,6.60
2023-03-12T17:58:45.691Z,8.20
2023-03-12T18:01:13.618Z,5.70
2023-03-12T18:03:40.813Z,14.70
2023-03-12T18:06:07.629Z,10.40
2023-03-12T18:08:34.420Z,6.70
2023-03-12T18:11:03.034Z,5.80
2023-03-12T18:13:30.751Z,10.90
2023-03-12T18:15:58.980Z,18.30
2023-03-12T18:18:26.786Z,71.00
2023-03-12T18:20:54.362Z,38.40
2023-03-12T18:23:21.241Z,24.30
2023-03-12T18:25:47.976Z,18.50
2023-03-12T18:28:15.412Z,29.50
2023-03-12T18:30:44.972Z,25.40
2023-03-12T18:33:11.818Z,27.90
2023-03-12T18:35:38.718Z,33.90
2023-03-12T18:38:05.806Z,32.50
2023-03-12T18:40:33.216Z,10.00
2023-03-12T18:43:00.672Z,11.30
2023-03-12T18:45:28.078Z,10.20
2023-03-12T18:47:54.977Z,8.60
2023-03-12T18:50:22.536Z,7.40
2023-03-12T18:52:49.324Z,8.90
2023-03-12T18:55:16.315Z,6.50
2023-03-12T18:57:44.671Z,6.70
2023-03-12T19:00:14.682Z,7.10
2023-03-12T19:02:57.634Z,11.90
2023-03-12T19:05:24.408Z,10.60
2023-03-12T19:07:51.521Z,9.20
2023-03-12T19:10:18.510Z,6.70
2023-03-12T19:12:52.670Z,10.80
2023-03-12T19:15:21.884Z,8.90
2023-03-12T19:17:48.699Z,8.70
2023-03-12T19:20:15.870Z,8.70
2023-03-12T19:22:42.669Z,11.30
2023-03-12T19:25:09.646Z,8.70
2023-03-12T19:27:36.423Z,8.00
2023-03-12T19:30:04.110Z,8.60
2023-03-12T19:32:42.269Z,9.40
2023-03-12T19:35:11.333Z,8.40
2023-03-12T19:37:38.176Z,8.70
2023-03-12T19:40:05.942Z,8.90
2023-03-12T19:42:32.818Z,11.20
2023-03-12T19:44:59.701Z,9.80
2023-03-12T19:47:26.846Z,11.70
2023-03-12T19:49:53.985Z,29.00
2023-03-12T19:52:20.782Z,16.70
2023-03-12T19:55:01.459Z,16.40
2023-03-12T19:57:31.702Z,11.10
2023-03-12T19:59:58.576Z,11.90
2023-03-12T20:02:26.363Z,9.90
2023-03-12T20:04:53.299Z,32.00
2023-03-12T20:07:20.027Z,13.20
2023-03-12T20:09:46.865Z,12.90
2023-03-12T20:12:13.700Z,10.00
2023-03-12T20:14:42.650Z,9.60
2023-03-12T20:17:11.554Z,9.70
2023-03-12T20:19:39.005Z,8.30
2023-03-12T20:22:06.981Z,10.60
2023-03-12T20:24:34.158Z,10.00
2023-03-12T20:27:01.673Z,11.90
2023-03-12T20:29:28.469Z,11.10
2023-03-12T20:31:55.330Z,10.00
2023-03-12T20:34:22.573Z,10.90
2023-03-12T20:36:51.833Z,34.40
2023-03-12T20:39:18.622Z,16.60
2023-03-12T20:41:45.364Z,17.40
2023-03-12T20:44:12.221Z,21.50
2023-03-12T20:46:38.989Z,39.30
2023-03-12T20:49:05.938Z,14.30
2023-03-12T20:51:32.700Z,85.70
2023-03-12T20:53:59.445Z,20.50
2023-03-12T20:56:26.326Z,14.90
2023-03-12T20:58:53.993Z,15.50
2023-03-12T21:01:20.892Z,13.70
2023-03-12T21:03:47.842Z,13.20
2023-03-12T21:06:14.661Z,13.90
2023-03-12T21:08:41.374Z,14.20
2023-03-12T21:11:08.809Z,16.10
2023-03-12T21:13:36.399Z,18.80
2023-03-12T21:16:05.653Z,17.30
2023-03-12T21:18:32.610Z,19.10
2023-03-12T21:21:04.677Z,20.90
2023-03-12T21:23:32.467Z,20.50
2023-03-12T21:26:01.982Z,16.90
2023-03-12T21:28:29.325Z,15.80
2023-03-12T21:30:56.368Z,27.80
2023-03-12T21:33:23.174Z,18.40
2023-03-12T21:35:51.988Z,41.30
2023-03-12T21:38:19.458Z,21.80
2023-03-12T21:40:47.316Z,14.70
2023-03-12T21:43:14.053Z,15.10
2023-03-12T21:45:42.698Z,36.00
2023-03-12T21:48:09.643Z,14.80
2023-03-12T21:50:36.387Z,13.20
2023-03-12T21:53:06.894Z,25.50
2023-03-12T21:55:41.268Z,119.40
2023-03-12T21:58:08.316Z,58.50
2023-03-12T22:00:35.117Z,72.30
2023-03-12T22:03:01.948Z,35.60
2023-03-12T22:05:28.710Z,41.10
2023-03-12T22:07:55.501Z,32.20
2023-03-12T22:10:22.327Z,20.50
2023-03-12T22:12:49.121Z,55.80
2023-03-12T22:15:16.029Z,57.30
2023-03-12T22:17:42.942Z,26.40
2023-03-12T22:20:10.661Z,22.60
2023-03-12T22:22:37.497Z,19.80
2023-03-12T22:25:04.640Z,22.00
2023-03-12T22:27:31.390Z,25.10
2023-03-12T22:29:58.132Z,30.80
2023-03-12T22:32:25.859Z,44.20
2023-03-12T22:34:52.647Z,52.70
2023-03-12T22:37:19.402Z,19.50
2023-03-12T22:39:46.200Z,35.10
2023-03-12T22:42:12.966Z,38.40
2023-03-12T22:44:41.475Z,16.70
2023-03-12T22:47:08.696Z,12.50
2023-03-12T22:49:35.819Z,9.20
2023-03-12T22:52:02.627Z,6.80
2023-03-12T22:54:29.385Z,8.60
2023-03-12T22:56:56.100Z,7.30
2023-03-12T22:59:22.867Z,8.80
2023-03-12T23:01:49.689Z,10.90
2023-03-12T23:04:16.586Z,8.30
2023-03-12T23:06:44.218Z,13.90
2023-03-12T23:09:11.233Z,16.60
2023-03-12T23:11:38.954Z,9.60
2023-03-12T23:14:05.775Z,24.60
2023-03-12T23:16:32.627Z,21.30
2023-03-12T23:19:00.396Z,10.40
2023-03-12T23:21:27.239Z,15.90
2023-03-12T23:23:54.305Z,6.90
2023-03-12T23:26:24.052Z,6.80
2023-03-12T23:28:53.368Z,5.90
2023-03-12T23:31:21.357Z,6.40
2023-03-12T23:33:48.212Z,6.10
2023-03-12T23:36:18.891Z,5.70
2023-03-12T23:38:47.068Z,6.10
2023-03-12T23:41:16.854Z,5.60
2023-03-12T23:43:44.204Z,5.90
2023-03-12T23:46:12.133Z,6.40
2023-03-12T23:48:40.100Z,5.40
2023-03-12T23:51:09.889Z,4.60
2023-03-12T23:53:37.778Z,5.00
2023-03-12T23:56:08.112Z,3.80
2023-03-12T23:58:35.952Z,4.20
